Amarant — SPG3207 — position and weather

sailwx.info

Track history (hours):
 
Tides and Currents Weather Stations Pressure Air Temp Water Temp Dewpoint Dewpoint Depression Visibility Wind Speed Wind Dir Waves Ship Positions

Amarant

Last reported at 2014-Sep-08 15:12 UTC. Time now 2014-Nov-28 04:11 UTC.
Position N 54°44' E 018°25'.
Warning: this ship's position is months out of date.

Length 14 m.

Type: Sailing vessel. MMSI: 261015190.

Date/timePositionNaut miles runAvg speedWind from/ knotsBaromVisibWave heightAir tempDewpointWater temp
2014-Sep-08 15:12N 54°44' E 018°25'4 6.0
2014-Sep-08 14:33N 54°41' E 018°30'6 5.9
2014-Sep-08 13:33N 54°36' E 018°34'4 4.0
2014-Sep-08 12:34N 54°32' E 018°34'5 0.2
2014-Sep-07 15:33N 54°27' E 018°35'0 0.0
2014-Sep-07 14:33N 54°27' E 018°35'0 0.0
2014-Sep-07 13:33N 54°27' E 018°35'0 0.1
2014-Sep-07 12:33N 54°27' E 018°35'4 3.6
2014-Sep-07 11:33N 54°30' E 018°39'6 6.4
2014-Sep-07 10:33N 54°34' E 018°46'2 0.2
2014-Sep-07 00:33N 54°36' E 018°48'1 0.8
2014-Sep-06 23:34N 54°35' E 018°48'5 4.6
2014-Sep-06 22:33N 54°40' E 018°49'5 4.8
2014-Sep-06 21:33N 54°44' E 018°45'5 5.2
2014-Sep-06 20:33N 54°49' E 018°41'5 5.2
2014-Sep-06 19:33N 54°54' E 018°37'6 6.0
2014-Sep-06 18:33N 54°59' E 018°33'6 5.9
2014-Sep-06 17:33N 55°04' E 018°27'6 6.0
2014-Sep-06 16:33N 55°09' E 018°21'6 6.1
2014-Sep-06 15:33N 55°14' E 018°16'6 6.5
2014-Sep-06 14:34N 55°20' E 018°11'6 5.9
2014-Sep-06 13:33N 55°25' E 018°08'6 6.1
2014-Sep-06 12:33N 55°32' E 018°08'7 5.7
2014-Sep-06 11:24N 55°38' E 018°09'5 5.4
2014-Sep-06 10:33N 55°38' E 018°01'4 4.3
2014-Sep-06 09:33N 55°39' E 017°53'3 2.7
2014-Sep-06 08:32N 55°42' E 017°52'6 5.6
2014-Sep-06 07:26N 55°47' E 017°59'5 6.1
2014-Sep-06 06:33N 55°51' E 018°03'6 5.9
2014-Sep-06 05:33N 55°56' E 018°09'6 5.5
2014-Sep-06 04:32N 56°01' E 018°13'5 5.5
2014-Sep-06 03:33N 56°06' E 018°18'6 5.7
2014-Sep-06 02:30N 56°11' E 018°23'7 5.7
2014-Sep-06 01:17N 56°18' E 018°26'24 5.0
2014-Sep-05 20:29N 56°42' E 018°23'5 5.0
2014-Sep-05 19:33N 56°47' E 018°21'6 6.3
2014-Sep-05 18:32N 56°53' E 018°20'5 4.7
2014-Sep-05 17:33N 56°57' E 018°24'  
Track history (hours):
 
Tides and Currents Weather Stations Pressure Air Temp Water Temp Dewpoint Dewpoint Depression Visibility Wind Speed Wind Dir Waves Ship Positions

Amarant

Last reported at 2014-Sep-08 15:12 UTC. Time now 2014-Nov-28 04:11 UTC.
Position N 54°44' E 018°25'.
Warning: this ship's position is months out of date.

Length 14 m.

Type: Sailing vessel. MMSI: 261015190.

Date/timePositionNaut miles runAvg speedWind from/ knotsBaromVisibWave heightAir tempDewpointWater temp
2014-Sep-08 15:12N 54°44' E 018°25'4 6.0
2014-Sep-08 14:33N 54°41' E 018°30'6 5.9
2014-Sep-08 13:33N 54°36' E 018°34'4 4.0
2014-Sep-08 12:34N 54°32' E 018°34'5 0.2
2014-Sep-07 15:33N 54°27' E 018°35'0 0.0
2014-Sep-07 14:33N 54°27' E 018°35'0 0.0
2014-Sep-07 13:33N 54°27' E 018°35'0 0.1
2014-Sep-07 12:33N 54°27' E 018°35'4 3.6
2014-Sep-07 11:33N 54°30' E 018°39'6 6.4
2014-Sep-07 10:33N 54°34' E 018°46'2 0.2
2014-Sep-07 00:33N 54°36' E 018°48'1 0.8
2014-Sep-06 23:34N 54°35' E 018°48'5 4.6
2014-Sep-06 22:33N 54°40' E 018°49'5 4.8
2014-Sep-06 21:33N 54°44' E 018°45'5 5.2
2014-Sep-06 20:33N 54°49' E 018°41'5 5.2
2014-Sep-06 19:33N 54°54' E 018°37'6 6.0
2014-Sep-06 18:33N 54°59' E 018°33'6 5.9
2014-Sep-06 17:33N 55°04' E 018°27'6 6.0
2014-Sep-06 16:33N 55°09' E 018°21'6 6.1
2014-Sep-06 15:33N 55°14' E 018°16'6 6.5
2014-Sep-06 14:34N 55°20' E 018°11'6 5.9
2014-Sep-06 13:33N 55°25' E 018°08'6 6.1
2014-Sep-06 12:33N 55°32' E 018°08'7 5.7
2014-Sep-06 11:24N 55°38' E 018°09'5 5.4
2014-Sep-06 10:33N 55°38' E 018°01'4 4.3
2014-Sep-06 09:33N 55°39' E 017°53'3 2.7
2014-Sep-06 08:32N 55°42' E 017°52'6 5.6
2014-Sep-06 07:26N 55°47' E 017°59'5 6.1
2014-Sep-06 06:33N 55°51' E 018°03'6 5.9
2014-Sep-06 05:33N 55°56' E 018°09'6 5.5
2014-Sep-06 04:32N 56°01' E 018°13'5 5.5
2014-Sep-06 03:33N 56°06' E 018°18'6 5.7
2014-Sep-06 02:30N 56°11' E 018°23'7 5.7
2014-Sep-06 01:17N 56°18' E 018°26'24 5.0
2014-Sep-05 20:29N 56°42' E 018°23'5 5.0
2014-Sep-05 19:33N 56°47' E 018°21'6 6.3
2014-Sep-05 18:32N 56°53' E 018°20'5 4.7
2014-Sep-05 17:33N 56°57' E 018°24'  

Dump ship's entire track history